Terminal Aerodrome Forecast
Issued by NWS Sterling, VA

Current Version | Previous Version | Graphics & Text | Print | Product List | Glossary On
Versions: 1 2 3 4 5 6 7 8 9 10 11 12 13 14 15 16 17 18 19 20 21
000
FTUS41 KLWX 232300
TAFIAD
TAF
KIAD 232338Z 2400/2506 32016G26KT P6SM FEW050
     FM240200 33014KT P6SM SKC
     FM240700 31009KT P6SM SKC
     FM241400 34014G24KT P6SM SCT250
     FM242100 35008KT P6SM SCT250
     FM250500 13004KT P6SM SCT250=

USA.gov is the U.S. government's official web portal to all federal, state and local government web resources and services.